sensor_id;sensor_type;location;lat;lon;timestamp;temperature;humidity
1453;DHT22;720;47.738;7.998;2023-07-30T00:01:21;18.30;99.90
1453;DHT22;720;47.738;7.998;2023-07-30T00:03:46;18.30;99.90
1453;DHT22;720;47.738;7.998;2023-07-30T00:06:12;18.30;99.90
1453;DHT22;720;47.738;7.998;2023-07-30T00:08:37;18.10;99.90
1453;DHT22;720;47.738;7.998;2023-07-30T00:11:03;18.20;99.90
1453;DHT22;720;47.738;7.998;2023-07-30T00:13:29;18.30;99.90
1453;DHT22;720;47.738;7.998;2023-07-30T00:15:54;18.30;99.90
1453;DHT22;720;47.738;7.998;2023-07-30T00:18:20;18.40;99.90
1453;DHT22;720;47.738;7.998;2023-07-30T00:20:45;18.30;99.90
1453;DHT22;720;47.738;7.998;2023-07-30T00:23:11;18.40;99.90
1453;DHT22;720;47.738;7.998;2023-07-30T00:25:37;18.40;99.90
1453;DHT22;720;47.738;7.998;2023-07-30T00:28:02;18.40;99.90
1453;DHT22;720;47.738;7.998;2023-07-30T00:30:28;18.40;99.90
1453;DHT22;720;47.738;7.998;2023-07-30T00:32:54;18.30;99.90
1453;DHT22;720;47.738;7.998;2023-07-30T00:35:19;18.40;99.90
1453;DHT22;720;47.738;7.998;2023-07-30T00:37:45;18.40;99.90
1453;DHT22;720;47.738;7.998;2023-07-30T00:40:11;18.40;99.90
1453;DHT22;720;47.738;7.998;2023-07-30T00:42:37;18.30;99.90
1453;DHT22;720;47.738;7.998;2023-07-30T00:45:03;18.20;99.90
1453;DHT22;720;47.738;7.998;2023-07-30T00:47:30;18.30;99.90
1453;DHT22;720;47.738;7.998;2023-07-30T00:49:55;18.30;99.90
1453;DHT22;720;47.738;7.998;2023-07-30T00:52:21;18.30;99.90
1453;DHT22;720;47.738;7.998;2023-07-30T00:54:49;18.30;99.90
1453;DHT22;720;47.738;7.998;2023-07-30T00:57:16;18.20;99.90
1453;DHT22;720;47.738;7.998;2023-07-30T00:59:43;18.30;99.90
1453;DHT22;720;47.738;7.998;2023-07-30T01:02:09;18.30;99.90
1453;DHT22;720;47.738;7.998;2023-07-30T01:04:36;18.30;99.90
1453;DHT22;720;47.738;7.998;2023-07-30T01:07:03;18.30;99.90
1453;DHT22;720;47.738;7.998;2023-07-30T01:09:29;18.30;99.90
1453;DHT22;720;47.738;7.998;2023-07-30T01:11:55;18.30;99.90
1453;DHT22;720;47.738;7.998;2023-07-30T01:14:21;18.20;99.90
1453;DHT22;720;47.738;7.998;2023-07-30T01:16:48;18.30;99.90
1453;DHT22;720;47.738;7.998;2023-07-30T01:19:14;18.30;99.90
1453;DHT22;720;47.738;7.998;2023-07-30T01:21:39;18.30;99.90
1453;DHT22;720;47.738;7.998;2023-07-30T01:24:05;18.20;99.90
1453;DHT22;720;47.738;7.998;2023-07-30T01:26:44;18.20;99.90
1453;DHT22;720;47.738;7.998;2023-07-30T01:29:16;18.20;99.90
1453;DHT22;720;47.738;7.998;2023-07-30T01:31:47;18.30;99.90
1453;DHT22;720;47.738;7.998;2023-07-30T01:34:15;18.30;99.90
1453;DHT22;720;47.738;7.998;2023-07-30T01:36:41;18.40;99.90
1453;DHT22;720;47.738;7.998;2023-07-30T01:39:10;18.40;99.90
1453;DHT22;720;47.738;7.998;2023-07-30T01:41:36;18.40;99.90
1453;DHT22;720;47.738;7.998;2023-07-30T01:44:02;18.40;99.90
1453;DHT22;720;47.738;7.998;2023-07-30T01:46:27;18.40;99.90
1453;DHT22;720;47.738;7.998;2023-07-30T01:48:53;18.40;99.90
1453;DHT22;720;47.738;7.998;2023-07-30T01:51:19;18.40;99.90
1453;DHT22;720;47.738;7.998;2023-07-30T01:53:44;18.40;99.90
1453;DHT22;720;47.738;7.998;2023-07-30T01:56:10;18.40;99.90
1453;DHT22;720;47.738;7.998;2023-07-30T01:58:36;18.20;99.90
1453;DHT22;720;47.738;7.998;2023-07-30T02:01:01;18.30;99.90
1453;DHT22;720;47.738;7.998;2023-07-30T02:03:27;18.40;99.90
1453;DHT22;720;47.738;7.998;2023-07-30T02:05:53;18.40;99.90
1453;DHT22;720;47.738;7.998;2023-07-30T02:08:18;18.50;99.90
1453;DHT22;720;47.738;7.998;2023-07-30T02:10:44;18.50;99.90
1453;DHT22;720;47.738;7.998;2023-07-30T02:13:09;18.50;99.90
1453;DHT22;720;47.738;7.998;2023-07-30T02:15:40;18.50;99.90
1453;DHT22;720;47.738;7.998;2023-07-30T02:18:05;18.50;99.90
1453;DHT22;720;47.738;7.998;2023-07-30T02:20:31;18.50;99.90
1453;DHT22;720;47.738;7.998;2023-07-30T02:22:57;18.60;99.90
1453;DHT22;720;47.738;7.998;2023-07-30T02:25:22;18.50;99.90
1453;DHT22;720;47.738;7.998;2023-07-30T02:27:48;18.50;99.90
1453;DHT22;720;47.738;7.998;2023-07-30T02:30:13;18.50;99.90
1453;DHT22;720;47.738;7.998;2023-07-30T02:32:39;18.50;99.90
1453;DHT22;720;47.738;7.998;2023-07-30T02:35:06;18.50;99.90
1453;DHT22;720;47.738;7.998;2023-07-30T02:37:32;18.50;99.90
1453;DHT22;720;47.738;7.998;2023-07-30T02:39:57;18.40;99.90
1453;DHT22;720;47.738;7.998;2023-07-30T02:42:24;18.40;99.90
1453;DHT22;720;47.738;7.998;2023-07-30T02:44:50;18.40;99.90
1453;DHT22;720;47.738;7.998;2023-07-30T02:47:16;18.40;99.90
1453;DHT22;720;47.738;7.998;2023-07-30T02:49:41;18.50;99.90
1453;DHT22;720;47.738;7.998;2023-07-30T02:52:07;18.40;99.90
1453;DHT22;720;47.738;7.998;2023-07-30T02:54:33;18.30;99.90
1453;DHT22;720;47.738;7.998;2023-07-30T02:56:58;18.40;99.90
1453;DHT22;720;47.738;7.998;2023-07-30T02:59:24;18.40;99.90
1453;DHT22;720;47.738;7.998;2023-07-30T03:01:49;18.40;99.90
1453;DHT22;720;47.738;7.998;2023-07-30T03:04:15;18.40;99.90
1453;DHT22;720;47.738;7.998;2023-07-30T03:06:41;18.40;99.90
1453;DHT22;720;47.738;7.998;2023-07-30T03:09:06;18.40;99.90
1453;DHT22;720;47.738;7.998;2023-07-30T03:11:32;18.30;99.90
1453;DHT22;720;47.738;7.998;2023-07-30T03:13:58;18.30;99.90
1453;DHT22;720;47.738;7.998;2023-07-30T03:16:24;18.30;99.90
1453;DHT22;720;47.738;7.998;2023-07-30T03:18:49;18.30;99.90
1453;DHT22;720;47.738;7.998;2023-07-30T03:21:15;18.30;99.90
1453;DHT22;720;47.738;7.998;2023-07-30T03:23:41;18.30;99.90
1453;DHT22;720;47.738;7.998;2023-07-30T03:26:10;18.30;99.90
1453;DHT22;720;47.738;7.998;2023-07-30T03:28:36;18.10;99.90
1453;DHT22;720;47.738;7.998;2023-07-30T03:31:02;18.10;99.90
1453;DHT22;720;47.738;7.998;2023-07-30T03:35:54;18.30;99.90
1453;DHT22;720;47.738;7.998;2023-07-30T03:38:20;18.30;99.90
1453;DHT22;720;47.738;7.998;2023-07-30T03:40:45;18.30;99.90
1453;DHT22;720;47.738;7.998;2023-07-30T03:43:11;18.30;99.90
1453;DHT22;720;47.738;7.998;2023-07-30T03:45:36;18.20;99.90
1453;DHT22;720;47.738;7.998;2023-07-30T03:48:02;18.30;99.90
1453;DHT22;720;47.738;7.998;2023-07-30T03:50:28;18.30;99.90
1453;DHT22;720;47.738;7.998;2023-07-30T03:52:53;18.30;99.90
1453;DHT22;720;47.738;7.998;2023-07-30T03:55:19;18.30;99.90
1453;DHT22;720;47.738;7.998;2023-07-30T03:57:45;18.40;99.90
1453;DHT22;720;47.738;7.998;2023-07-30T04:00:10;18.30;99.90
1453;DHT22;720;47.738;7.998;2023-07-30T04:02:37;18.30;99.90
1453;DHT22;720;47.738;7.998;2023-07-30T04:05:02;18.30;99.90
1453;DHT22;720;47.738;7.998;2023-07-30T04:07:28;18.30;99.90
1453;DHT22;720;47.738;7.998;2023-07-30T04:09:54;18.30;99.90
1453;DHT22;720;47.738;7.998;2023-07-30T04:12:19;18.40;99.90
1453;DHT22;720;47.738;7.998;2023-07-30T04:14:46;18.40;99.90
1453;DHT22;720;47.738;7.998;2023-07-30T04:17:12;18.30;99.90
1453;DHT22;720;47.738;7.998;2023-07-30T04:19:38;18.40;99.90
1453;DHT22;720;47.738;7.998;2023-07-30T04:22:03;18.30;99.90
1453;DHT22;720;47.738;7.998;2023-07-30T04:24:29;18.20;99.90
1453;DHT22;720;47.738;7.998;2023-07-30T04:26:54;18.20;99.90
1453;DHT22;720;47.738;7.998;2023-07-30T04:29:20;18.20;99.90
1453;DHT22;720;47.738;7.998;2023-07-30T04:31:46;18.30;99.90
1453;DHT22;720;47.738;7.998;2023-07-30T04:34:11;18.30;99.90
1453;DHT22;720;47.738;7.998;2023-07-30T04:36:37;18.30;99.90
1453;DHT22;720;47.738;7.998;2023-07-30T04:39:03;18.30;99.90
1453;DHT22;720;47.738;7.998;2023-07-30T04:41:28;18.40;99.90
1453;DHT22;720;47.738;7.998;2023-07-30T04:43:54;18.20;99.90
1453;DHT22;720;47.738;7.998;2023-07-30T04:46:19;18.20;99.90
1453;DHT22;720;47.738;7.998;2023-07-30T04:48:45;18.30;99.90
1453;DHT22;720;47.738;7.998;2023-07-30T04:51:11;18.00;99.90
1453;DHT22;720;47.738;7.998;2023-07-30T04:53:36;18.10;99.90
1453;DHT22;720;47.738;7.998;2023-07-30T04:56:02;18.00;99.90
1453;DHT22;720;47.738;7.998;2023-07-30T04:58:28;18.10;99.90
1453;DHT22;720;47.738;7.998;2023-07-30T05:00:53;18.10;99.90
1453;DHT22;720;47.738;7.998;2023-07-30T05:03:19;18.20;99.90
1453;DHT22;720;47.738;7.998;2023-07-30T05:05:44;18.10;99.90
1453;DHT22;720;47.738;7.998;2023-07-30T05:08:10;18.00;99.90
1453;DHT22;720;47.738;7.998;2023-07-30T05:10:35;18.10;99.90
1453;DHT22;720;47.738;7.998;2023-07-30T05:13:01;18.20;99.90
1453;DHT22;720;47.738;7.998;2023-07-30T05:15:28;18.00;99.90
1453;DHT22;720;47.738;7.998;2023-07-30T05:17:53;17.90;99.90
1453;DHT22;720;47.738;7.998;2023-07-30T05:20:19;18.00;99.90
1453;DHT22;720;47.738;7.998;2023-07-30T05:22:44;18.10;99.90
1453;DHT22;720;47.738;7.998;2023-07-30T05:25:10;18.10;99.90
1453;DHT22;720;47.738;7.998;2023-07-30T05:27:36;18.10;99.90
1453;DHT22;720;47.738;7.998;2023-07-30T05:30:02;18.20;99.90
1453;DHT22;720;47.738;7.998;2023-07-30T05:32:27;18.30;99.90
1453;DHT22;720;47.738;7.998;2023-07-30T05:34:53;18.20;99.90
1453;DHT22;720;47.738;7.998;2023-07-30T05:37:19;18.30;99.90
1453;DHT22;720;47.738;7.998;2023-07-30T05:39:45;18.30;99.90
1453;DHT22;720;47.738;7.998;2023-07-30T05:42:10;18.30;99.90
1453;DHT22;720;47.738;7.998;2023-07-30T05:44:36;18.30;99.90
1453;DHT22;720;47.738;7.998;2023-07-30T05:47:01;18.20;99.90
1453;DHT22;720;47.738;7.998;2023-07-30T05:49:27;18.30;99.90
1453;DHT22;720;47.738;7.998;2023-07-30T05:51:53;18.40;99.90
1453;DHT22;720;47.738;7.998;2023-07-30T05:54:18;18.40;99.90
1453;DHT22;720;47.738;7.998;2023-07-30T05:56:44;18.40;99.90
1453;DHT22;720;47.738;7.998;2023-07-30T05:59:09;18.50;99.90
1453;DHT22;720;47.738;7.998;2023-07-30T06:01:35;18.50;99.90
1453;DHT22;720;47.738;7.998;2023-07-30T06:04:01;18.60;99.90
1453;DHT22;720;47.738;7.998;2023-07-30T06:06:26;18.60;99.90
1453;DHT22;720;47.738;7.998;2023-07-30T06:08:55;18.60;99.90
1453;DHT22;720;47.738;7.998;2023-07-30T06:11:21;18.50;99.90
1453;DHT22;720;47.738;7.998;2023-07-30T06:13:47;18.50;99.90
1453;DHT22;720;47.738;7.998;2023-07-30T06:16:14;18.50;99.90
1453;DHT22;720;47.738;7.998;2023-07-30T06:18:40;18.40;99.90
1453;DHT22;720;47.738;7.998;2023-07-30T06:21:05;18.30;99.90
1453;DHT22;720;47.738;7.998;2023-07-30T06:23:31;18.30;99.90
1453;DHT22;720;47.738;7.998;2023-07-30T06:25:57;18.30;99.90
1453;DHT22;720;47.738;7.998;2023-07-30T06:28:22;18.20;99.90
1453;DHT22;720;47.738;7.998;2023-07-30T06:30:49;18.10;99.90
1453;DHT22;720;47.738;7.998;2023-07-30T06:33:14;18.20;99.90
1453;DHT22;720;47.738;7.998;2023-07-30T06:35:40;18.30;99.90
1453;DHT22;720;47.738;7.998;2023-07-30T06:38:07;18.30;99.90
1453;DHT22;720;47.738;7.998;2023-07-30T06:40:33;18.40;99.90
1453;DHT22;720;47.738;7.998;2023-07-30T06:42:59;18.50;99.90
1453;DHT22;720;47.738;7.998;2023-07-30T06:45:24;18.40;99.90
1453;DHT22;720;47.738;7.998;2023-07-30T06:47:50;18.30;99.90
1453;DHT22;720;47.738;7.998;2023-07-30T06:50:16;18.10;99.90
1453;DHT22;720;47.738;7.998;2023-07-30T06:52:41;18.00;99.90
1453;DHT22;720;47.738;7.998;2023-07-30T06:55:07;18.00;99.90
1453;DHT22;720;47.738;7.998;2023-07-30T06:57:33;18.00;99.90
1453;DHT22;720;47.738;7.998;2023-07-30T06:59:59;18.10;99.90
1453;DHT22;720;47.738;7.998;2023-07-30T07:02:25;18.30;99.90
1453;DHT22;720;47.738;7.998;2023-07-30T07:04:51;18.40;99.90
1453;DHT22;720;47.738;7.998;2023-07-30T07:07:17;18.70;99.90
1453;DHT22;720;47.738;7.998;2023-07-30T07:09:42;18.90;99.90
1453;DHT22;720;47.738;7.998;2023-07-30T07:12:08;19.00;99.90
1453;DHT22;720;47.738;7.998;2023-07-30T07:14:34;19.00;99.90
1453;DHT22;720;47.738;7.998;2023-07-30T07:16:59;18.90;99.90
1453;DHT22;720;47.738;7.998;2023-07-30T07:19:25;18.70;99.90
1453;DHT22;720;47.738;7.998;2023-07-30T07:21:51;18.70;99.90
1453;DHT22;720;47.738;7.998;2023-07-30T07:24:16;18.70;99.90
1453;DHT22;720;47.738;7.998;2023-07-30T07:26:42;18.70;99.90
1453;DHT22;720;47.738;7.998;2023-07-30T07:29:09;18.70;99.90
1453;DHT22;720;47.738;7.998;2023-07-30T07:31:34;18.80;99.90
1453;DHT22;720;47.738;7.998;2023-07-30T07:34:00;19.00;99.90
1453;DHT22;720;47.738;7.998;2023-07-30T07:36:26;19.30;99.90
1453;DHT22;720;47.738;7.998;2023-07-30T07:38:51;19.50;99.90
1453;DHT22;720;47.738;7.998;2023-07-30T07:41:17;19.80;99.90
1453;DHT22;720;47.738;7.998;2023-07-30T07:43:43;20.30;99.90
1453;DHT22;720;47.738;7.998;2023-07-30T07:46:09;20.40;99.90
1453;DHT22;720;47.738;7.998;2023-07-30T07:48:42;20.20;99.90
1453;DHT22;720;47.738;7.998;2023-07-30T07:51:09;20.00;99.90
1453;DHT22;720;47.738;7.998;2023-07-30T07:53:36;19.90;99.90
1453;DHT22;720;47.738;7.998;2023-07-30T07:56:02;19.90;99.90
1453;DHT22;720;47.738;7.998;2023-07-30T07:58:28;19.90;99.90
1453;DHT22;720;47.738;7.998;2023-07-30T08:00:55;20.00;99.90
1453;DHT22;720;47.738;7.998;2023-07-30T08:03:21;20.00;99.90
1453;DHT22;720;47.738;7.998;2023-07-30T08:05:48;20.00;99.90
1453;DHT22;720;47.738;7.998;2023-07-30T08:08:14;20.00;99.90
1453;DHT22;720;47.738;7.998;2023-07-30T08:10:40;20.30;99.90
1453;DHT22;720;47.738;7.998;2023-07-30T08:13:12;21.10;99.90
1453;DHT22;720;47.738;7.998;2023-07-30T08:15:37;21.70;99.40
1453;DHT22;720;47.738;7.998;2023-07-30T08:18:03;22.60;97.50
1453;DHT22;720;47.738;7.998;2023-07-30T08:20:29;24.10;97.40
1453;DHT22;720;47.738;7.998;2023-07-30T08:22:54;25.50;93.60
1453;DHT22;720;47.738;7.998;2023-07-30T08:25:20;25.70;92.40
1453;DHT22;720;47.738;7.998;2023-07-30T08:27:46;25.50;92.70
1453;DHT22;720;47.738;7.998;2023-07-30T08:30:12;25.00;91.60
1453;DHT22;720;47.738;7.998;2023-07-30T08:32:38;24.50;93.30
1453;DHT22;720;47.738;7.998;2023-07-30T08:35:04;24.20;92.00
1453;DHT22;720;47.738;7.998;2023-07-30T08:37:30;24.30;93.70
1453;DHT22;720;47.738;7.998;2023-07-30T08:39:56;25.50;92.50
1453;DHT22;720;47.738;7.998;2023-07-30T08:42:22;26.60;87.00
1453;DHT22;720;47.738;7.998;2023-07-30T08:44:48;27.30;85.50
1453;DHT22;720;47.738;7.998;2023-07-30T08:47:13;28.00;83.40
1453;DHT22;720;47.738;7.998;2023-07-30T08:49:39;28.20;83.30
1453;DHT22;720;47.738;7.998;2023-07-30T08:52:08;26.40;83.50
1453;DHT22;720;47.738;7.998;2023-07-30T08:54:34;25.50;89.00
1453;DHT22;720;47.738;7.998;2023-07-30T08:57:02;24.90;90.20
1453;DHT22;720;47.738;7.998;2023-07-30T08:59:31;24.20;90.90
1453;DHT22;720;47.738;7.998;2023-07-30T09:01:59;23.80;92.50
1453;DHT22;720;47.738;7.998;2023-07-30T09:04:25;23.80;92.00
1453;DHT22;720;47.738;7.998;2023-07-30T09:06:51;23.70;90.30
1453;DHT22;720;47.738;7.998;2023-07-30T09:09:17;23.50;91.70
1453;DHT22;720;47.738;7.998;2023-07-30T09:11:42;23.10;92.10
1453;DHT22;720;47.738;7.998;2023-07-30T09:14:08;22.80;91.70
1453;DHT22;720;47.738;7.998;2023-07-30T09:16:35;22.40;92.20
1453;DHT22;720;47.738;7.998;2023-07-30T09:19:00;22.20;92.10
1453;DHT22;720;47.738;7.998;2023-07-30T09:21:30;21.90;92.30
1453;DHT22;720;47.738;7.998;2023-07-30T09:23:56;21.60;93.50
1453;DHT22;720;47.738;7.998;2023-07-30T09:26:22;21.30;93.80
1453;DHT22;720;47.738;7.998;2023-07-30T09:28:48;21.20;99.90
1453;DHT22;720;47.738;7.998;2023-07-30T09:31:13;21.30;95.40
1453;DHT22;720;47.738;7.998;2023-07-30T09:33:42;21.40;93.70
1453;DHT22;720;47.738;7.998;2023-07-30T09:36:08;21.70;93.60
1453;DHT22;720;47.738;7.998;2023-07-30T09:38:42;22.90;99.90
1453;DHT22;720;47.738;7.998;2023-07-30T09:41:08;22.80;92.60
1453;DHT22;720;47.738;7.998;2023-07-30T09:43:35;23.60;92.00
1453;DHT22;720;47.738;7.998;2023-07-30T09:46:05;24.10;88.60
1453;DHT22;720;47.738;7.998;2023-07-30T09:48:32;24.30;89.70
1453;DHT22;720;47.738;7.998;2023-07-30T09:51:01;25.00;90.20
1453;DHT22;720;47.738;7.998;2023-07-30T09:53:32;26.00;86.50
1453;DHT22;720;47.738;7.998;2023-07-30T09:56:02;26.80;80.90
1453;DHT22;720;47.738;7.998;2023-07-30T09:58:28;27.20;79.40
1453;DHT22;720;47.738;7.998;2023-07-30T10:00:56;27.50;76.70
1453;DHT22;720;47.738;7.998;2023-07-30T10:03:23;28.10;77.10
1453;DHT22;720;47.738;7.998;2023-07-30T10:05:49;28.50;70.90
1453;DHT22;720;47.738;7.998;2023-07-30T10:08:23;28.70;66.90
1453;DHT22;720;47.738;7.998;2023-07-30T10:10:50;28.50;67.00
1453;DHT22;720;47.738;7.998;2023-07-30T10:13:18;28.10;70.80
1453;DHT22;720;47.738;7.998;2023-07-30T10:15:46;27.30;72.60
1453;DHT22;720;47.738;7.998;2023-07-30T10:18:11;26.40;74.50
1453;DHT22;720;47.738;7.998;2023-07-30T10:20:38;25.70;80.80
1453;DHT22;720;47.738;7.998;2023-07-30T10:23:04;25.30;75.50
1453;DHT22;720;47.738;7.998;2023-07-30T10:25:43;25.60;78.20
1453;DHT22;720;47.738;7.998;2023-07-30T10:30:59;24.90;81.10
1453;DHT22;720;47.738;7.998;2023-07-30T10:33:50;24.60;79.20
1453;DHT22;720;47.738;7.998;2023-07-30T10:36:40;24.40;80.30
1453;DHT22;720;47.738;7.998;2023-07-30T10:39:20;24.20;80.70
1453;DHT22;720;47.738;7.998;2023-07-30T10:41:52;23.70;82.50
1453;DHT22;720;47.738;7.998;2023-07-30T10:44:32;23.70;88.60
1453;DHT22;720;47.738;7.998;2023-07-30T10:47:00;24.30;83.80
1453;DHT22;720;47.738;7.998;2023-07-30T10:49:26;24.70;79.30
1453;DHT22;720;47.738;7.998;2023-07-30T10:51:53;24.80;79.30
1453;DHT22;720;47.738;7.998;2023-07-30T10:54:19;24.90;80.70
1453;DHT22;720;47.738;7.998;2023-07-30T10:56:45;25.20;82.00
1453;DHT22;720;47.738;7.998;2023-07-30T10:59:12;25.30;82.90
1453;DHT22;720;47.738;7.998;2023-07-30T11:01:43;25.30;78.40
1453;DHT22;720;47.738;7.998;2023-07-30T11:04:14;25.20;77.80
1453;DHT22;720;47.738;7.998;2023-07-30T11:06:48;25.10;79.90
1453;DHT22;720;47.738;7.998;2023-07-30T11:09:24;24.80;82.60
1453;DHT22;720;47.738;7.998;2023-07-30T11:11:52;24.40;83.70
1453;DHT22;720;47.738;7.998;2023-07-30T11:14:20;24.10;83.00
1453;DHT22;720;47.738;7.998;2023-07-30T11:16:53;24.00;85.20
1453;DHT22;720;47.738;7.998;2023-07-30T11:19:20;23.90;86.70
1453;DHT22;720;47.738;7.998;2023-07-30T11:21:50;24.00;82.30
1453;DHT22;720;47.738;7.998;2023-07-30T11:24:16;24.30;80.30
1453;DHT22;720;47.738;7.998;2023-07-30T11:26:42;24.70;79.40
1453;DHT22;720;47.738;7.998;2023-07-30T11:29:15;24.80;76.70
1453;DHT22;720;47.738;7.998;2023-07-30T11:31:43;24.80;76.70
1453;DHT22;720;47.738;7.998;2023-07-30T11:34:09;23.70;77.40
1453;DHT22;720;47.738;7.998;2023-07-30T11:36:35;23.30;80.30
1453;DHT22;720;47.738;7.998;2023-07-30T11:41:27;23.30;80.00
1453;DHT22;720;47.738;7.998;2023-07-30T11:43:54;23.30;78.90
1453;DHT22;720;47.738;7.998;2023-07-30T11:46:20;23.50;83.40
1453;DHT22;720;47.738;7.998;2023-07-30T11:48:50;23.80;98.90
1453;DHT22;720;47.738;7.998;2023-07-30T11:51:33;23.60;80.80
1453;DHT22;720;47.738;7.998;2023-07-30T11:54:00;24.10;77.20
1453;DHT22;720;47.738;7.998;2023-07-30T11:56:27;24.00;77.70
1453;DHT22;720;47.738;7.998;2023-07-30T11:58:58;24.20;78.50
1453;DHT22;720;47.738;7.998;2023-07-30T12:01:26;24.10;78.60
1453;DHT22;720;47.738;7.998;2023-07-30T12:03:56;24.10;79.70
1453;DHT22;720;47.738;7.998;2023-07-30T12:06:22;24.20;78.20
1453;DHT22;720;47.738;7.998;2023-07-30T12:08:49;24.40;96.60
1453;DHT22;720;47.738;7.998;2023-07-30T12:11:17;24.10;76.80
1453;DHT22;720;47.738;7.998;2023-07-30T12:13:45;24.10;77.30
1453;DHT22;720;47.738;7.998;2023-07-30T12:16:12;23.90;78.30
1453;DHT22;720;47.738;7.998;2023-07-30T12:18:38;23.60;92.30
1453;DHT22;720;47.738;7.998;2023-07-30T12:21:05;23.80;75.70
1453;DHT22;720;47.738;7.998;2023-07-30T12:23:36;23.80;75.30
1453;DHT22;720;47.738;7.998;2023-07-30T12:26:03;23.40;74.60
1453;DHT22;720;47.738;7.998;2023-07-30T12:28:32;23.10;76.20
1453;DHT22;720;47.738;7.998;2023-07-30T12:30:59;23.00;77.20
1453;DHT22;720;47.738;7.998;2023-07-30T12:33:24;22.60;77.90
1453;DHT22;720;47.738;7.998;2023-07-30T12:35:50;21.90;80.70
1453;DHT22;720;47.738;7.998;2023-07-30T12:38:16;21.90;82.20
1453;DHT22;720;47.738;7.998;2023-07-30T12:40:42;22.20;78.00
1453;DHT22;720;47.738;7.998;2023-07-30T12:43:07;22.50;78.70
1453;DHT22;720;47.738;7.998;2023-07-30T12:45:34;22.80;77.40
1453;DHT22;720;47.738;7.998;2023-07-30T12:48:01;23.20;75.00
1453;DHT22;720;47.738;7.998;2023-07-30T12:50:26;23.50;75.90
1453;DHT22;720;47.738;7.998;2023-07-30T12:52:52;23.30;75.30
1453;DHT22;720;47.738;7.998;2023-07-30T12:55:18;22.90;75.30
1453;DHT22;720;47.738;7.998;2023-07-30T12:57:44;22.90;79.00
1453;DHT22;720;47.738;7.998;2023-07-30T13:00:10;22.90;78.00
1453;DHT22;720;47.738;7.998;2023-07-30T13:02:35;23.20;81.00
1453;DHT22;720;47.738;7.998;2023-07-30T13:05:02;23.30;78.40
1453;DHT22;720;47.738;7.998;2023-07-30T13:07:29;23.40;79.80
1453;DHT22;720;47.738;7.998;2023-07-30T13:10:07;23.20;80.70
1453;DHT22;720;47.738;7.998;2023-07-30T13:12:33;23.10;78.50
1453;DHT22;720;47.738;7.998;2023-07-30T13:15:00;23.00;77.00
1453;DHT22;720;47.738;7.998;2023-07-30T13:17:25;22.80;76.40
1453;DHT22;720;47.738;7.998;2023-07-30T13:19:51;22.60;77.40
1453;DHT22;720;47.738;7.998;2023-07-30T13:22:17;22.70;77.10
1453;DHT22;720;47.738;7.998;2023-07-30T13:24:42;22.80;74.50
1453;DHT22;720;47.738;7.998;2023-07-30T13:27:08;22.90;80.30
1453;DHT22;720;47.738;7.998;2023-07-30T13:29:34;23.00;77.60
1453;DHT22;720;47.738;7.998;2023-07-30T13:31:59;22.80;77.10
1453;DHT22;720;47.738;7.998;2023-07-30T13:34:25;22.70;76.10
1453;DHT22;720;47.738;7.998;2023-07-30T13:36:50;22.70;74.00
1453;DHT22;720;47.738;7.998;2023-07-30T13:39:16;22.60;72.10
1453;DHT22;720;47.738;7.998;2023-07-30T13:41:42;22.60;72.50
1453;DHT22;720;47.738;7.998;2023-07-30T13:44:08;22.50;77.40
1453;DHT22;720;47.738;7.998;2023-07-30T13:46:34;22.60;81.00
1453;DHT22;720;47.738;7.998;2023-07-30T13:48:59;22.60;76.70
1453;DHT22;720;47.738;7.998;2023-07-30T13:51:25;22.80;77.60
1453;DHT22;720;47.738;7.998;2023-07-30T13:53:52;22.70;75.60
1453;DHT22;720;47.738;7.998;2023-07-30T13:56:17;22.40;75.30
1453;DHT22;720;47.738;7.998;2023-07-30T13:58:43;22.10;96.80
1453;DHT22;720;47.738;7.998;2023-07-30T14:01:09;22.10;76.10
1453;DHT22;720;47.738;7.998;2023-07-30T14:03:35;22.20;77.30
1453;DHT22;720;47.738;7.998;2023-07-30T14:06:00;22.10;76.50
1453;DHT22;720;47.738;7.998;2023-07-30T14:08:26;22.10;80.50
1453;DHT22;720;47.738;7.998;2023-07-30T14:10:52;22.00;77.80
1453;DHT22;720;47.738;7.998;2023-07-30T14:13:17;22.00;77.40
1453;DHT22;720;47.738;7.998;2023-07-30T14:15:43;22.00;77.80
1453;DHT22;720;47.738;7.998;2023-07-30T14:18:10;22.00;82.10
1453;DHT22;720;47.738;7.998;2023-07-30T14:20:36;21.90;77.00
1453;DHT22;720;47.738;7.998;2023-07-30T14:23:03;21.70;78.30
1453;DHT22;720;47.738;7.998;2023-07-30T14:25:29;21.60;79.90
1453;DHT22;720;47.738;7.998;2023-07-30T14:27:55;21.70;81.10
1453;DHT22;720;47.738;7.998;2023-07-30T14:30:21;21.70;80.90
1453;DHT22;720;47.738;7.998;2023-07-30T14:32:46;21.70;79.80
1453;DHT22;720;47.738;7.998;2023-07-30T14:35:12;21.80;81.40
1453;DHT22;720;47.738;7.998;2023-07-30T14:37:37;21.80;81.80
1453;DHT22;720;47.738;7.998;2023-07-30T14:40:03;22.00;77.10
1453;DHT22;720;47.738;7.998;2023-07-30T14:42:29;22.00;78.80
1453;DHT22;720;47.738;7.998;2023-07-30T14:44:55;21.80;77.50
1453;DHT22;720;47.738;7.998;2023-07-30T14:47:20;21.80;80.90
1453;DHT22;720;47.738;7.998;2023-07-30T14:49:47;21.90;82.60
1453;DHT22;720;47.738;7.998;2023-07-30T14:52:13;21.80;83.30
1453;DHT22;720;47.738;7.998;2023-07-30T14:54:39;21.70;81.60
1453;DHT22;720;47.738;7.998;2023-07-30T14:57:05;21.70;82.30
1453;DHT22;720;47.738;7.998;2023-07-30T14:59:30;21.50;80.50
1453;DHT22;720;47.738;7.998;2023-07-30T15:01:56;21.40;82.30
1453;DHT22;720;47.738;7.998;2023-07-30T15:04:22;21.40;83.30
1453;DHT22;720;47.738;7.998;2023-07-30T15:06:47;21.50;81.00
1453;DHT22;720;47.738;7.998;2023-07-30T15:11:39;21.70;79.20
1453;DHT22;720;47.738;7.998;2023-07-30T15:14:04;21.60;79.40
1453;DHT22;720;47.738;7.998;2023-07-30T15:16:30;21.60;80.20
1453;DHT22;720;47.738;7.998;2023-07-30T15:18:57;21.60;79.00
1453;DHT22;720;47.738;7.998;2023-07-30T15:21:23;21.50;78.30
1453;DHT22;720;47.738;7.998;2023-07-30T15:23:48;21.40;77.70
1453;DHT22;720;47.738;7.998;2023-07-30T15:26:14;21.40;79.50
1453;DHT22;720;47.738;7.998;2023-07-30T15:28:41;20.90;94.70
1453;DHT22;720;47.738;7.998;2023-07-30T15:31:06;21.20;77.30
1453;DHT22;720;47.738;7.998;2023-07-30T15:33:32;21.00;78.40
1453;DHT22;720;47.738;7.998;2023-07-30T15:35:58;21.00;82.10
1453;DHT22;720;47.738;7.998;2023-07-30T15:38:23;20.90;78.10
1453;DHT22;720;47.738;7.998;2023-07-30T15:40:49;20.90;81.40
1453;DHT22;720;47.738;7.998;2023-07-30T15:43:14;20.60;81.00
1453;DHT22;720;47.738;7.998;2023-07-30T15:45:40;20.60;81.20
1453;DHT22;720;47.738;7.998;2023-07-30T15:48:11;20.60;79.10
1453;DHT22;720;47.738;7.998;2023-07-30T15:50:38;20.60;80.90
1453;DHT22;720;47.738;7.998;2023-07-30T15:53:04;20.70;82.30
1453;DHT22;720;47.738;7.998;2023-07-30T15:55:29;20.90;95.40
1453;DHT22;720;47.738;7.998;2023-07-30T15:57:55;20.90;80.00
1453;DHT22;720;47.738;7.998;2023-07-30T16:00:21;21.00;82.70
1453;DHT22;720;47.738;7.998;2023-07-30T16:02:47;21.00;81.10
1453;DHT22;720;47.738;7.998;2023-07-30T16:05:13;20.70;83.30
1453;DHT22;720;47.738;7.998;2023-07-30T16:07:40;20.50;83.40
1453;DHT22;720;47.738;7.998;2023-07-30T16:10:06;20.40;82.60
1453;DHT22;720;47.738;7.998;2023-07-30T16:12:33;20.30;84.50
1453;DHT22;720;47.738;7.998;2023-07-30T16:14:58;20.30;86.00
1453;DHT22;720;47.738;7.998;2023-07-30T16:17:24;20.20;83.50
1453;DHT22;720;47.738;7.998;2023-07-30T16:19:50;20.20;84.90
1453;DHT22;720;47.738;7.998;2023-07-30T16:22:15;20.20;84.00